• NOTAM LFIP

     Durée permanente depuis 12/05/22 10:24Z
    E) ACTIVITE AEROMODELISME NR 9067 'PEYRESOURDE' SUPPRIMEE F) SFC

    NOTAM LFCB

    Aucun NOTAM

    NOTAM LFBT

     28/04 01:12Z - 06/06/22 11:59Z
    E) TWY C, D FERMES, TWY M FERME ENTRE B ET D.

     05/05 10:00Z - 03/06/22 11:59Z
    E) ENTRAINEMENTS SUR PROCEDURES ILS INTERDITS

     13/05 12:00Z - 08/10/22 11:59Z
    E) PROTECTION DU SANCTUAIRE DE 'LOURDES' - SUP AIP 106/22 : OBJET : CREATION D'UNE ZONE REGLEMENTEE TEMPORAIRE. CE SUP AIP EST DISPONIBLE SUR WWW.SIA.AVIATION-CIVILE.GOUV.FR

     13/05 11:30Z - 29/10/22 08:00Z
    E) DOUANE ET POLICE: 0500-2000 PN INCLUANT DETAILS DES PASSAGERS ET EQUIPAGE (24HR EN SEMAINE, 48HR WEEK END ET 26 MAI, 14 JUILLET, 15 AOUT) AUPRES DE : -BSE-TARBES(AT)DOUANE.FINANCES.GOUV.FR -DIV-TOULOUSE2(AT)DOUANE.FINANCES.GOUV.FR -CODT-BORDEAUX(AT)DOUANE.FINANCES.GOUV.FR EN DEHORS DE CES HORAIRES : PN SELON MODALITES CI-DESSUS (SAUF DEROUTEMENT). PN POUR VOLS HORS UNION EUROPEENNE (ISLANDE, LIECHTENSTEIN, NORVEGE, SUISSE) SELON MODALITES CI-DESSUS

     20/05 05:00Z - 15/06/22 04:00Z
    D) MON-FRI 0500-1600 E) ILS 20 HORS SERVICE. NE PAS UTILISER FAUSSES INDICATIONS POSSIBLES: REMISE EN SERVICE PPR 30MN A L'ATS

     14/03 11:36Z - 03/06/22 05:00Z
    E) OBSTACLES : PRESENCE DE BARRIERES DE CHANTIER GREVANT LES SERVITUDES DE DEGAGEMENT - RDL 190/600M THR 02 : - PSN MOYEN : 430958N 0000041W - HAUTEUR : 7.4FT - ALTITUDE AU SOMMET : 1263FT - BALISAGE : NIL.











  • PHOTOS SATELLITE

CARTE TEMSI

CARTE WINTEM

  • Vent à 5000ft

  • Base des nuages

  • ANIMATION RADAR

  • METAR/TAF LFBT (TARBES-LOURDES-PYRENÉES)

    LFBT 230530Z AUTO 27007KT 230V300 9999 OVC011 15/13 Q1012 BECMG SCT015 BKN030

    TAF AMD LFBT 230309Z 2303/2324 28013KT 9999 BKN030 BECMG 2307/2309 SCT015 BKN030 BECMG 2316/2318 BKN035 OVC080

    METAR/TAF LFBP (PAU-PYRÉNÉES)

    LFBP 230530Z AUTO /////KT 9999 BKN015 16/14 Q1011

    TAF LFBP 222300Z 2300/2324 26010KT 9999 BKN010 TEMPO 2301/2307 -RA BKN008 SCT030TCU BECMG 2312/2314 BKN050 PROB40 TEMPO 2317/2324 4000 -SHRA BKN030

    METAR/TAF LFBO (TOULOUSE / Blagnac)

    LFBO 230530Z AUTO 26010KT 9999 OVC015 17/15 Q1011 TEMPO SHRA SCT015 BKN040TCU

    TAF AMD LFBO 230046Z 2300/2406 28012KT 9999 BKN014 PROB40 TEMPO 2301/2307 SHRA SCT015 BKN040TCU PROB40 TEMPO 2302/2306 30020G30KT TSRA SCT060CB BECMG 2310/2312 BKN040 BECMG 2316/2318 CAVOK TEMPO 2400/2406 SCT030TCU

RESERVATION

  • COMM' CLUB

    LFIP - Etat de la piste (informatif)

    Nous vous présentons ci-dessous l'état de l'altiport (piste et aire de manœuvre, parkings), à titre purement INFORMATIF

    • Image de la piste ci-dessous, en date du  :

     INFORMATION PISTE : 09/27 DENNEIGEE 

  • COMM' Comité Régional Aéronautique

    AGENDA CRA11


    21 mai 2022                  Rallye aérien à Bédarieux - infos & inscriptions sur sports.ffa-aero.fr
                         
    Juillet 2022                   Championnat de France de pilotage de précison

    Août 2022                     Championnat du Monde de pilotage de précison

    17 septembre 2022      Rallye aérien à Auch -  infos & inscriptions sur sports.ffa-aero.fr


  • COMM' FFA

    FLASH SV : L'été arrive et les grandes chaleurs aussi !!!